sensor_id;sensor_type;location;lat;lon;timestamp;P1;durP1;ratioP1;P2;durP2;ratioP2
25567;SDS011;13455;51.480;7.594;2023-06-22T00:00:02;6.72;;;4.50;;
25567;SDS011;13455;51.480;7.594;2023-06-22T00:02:33;8.07;;;4.40;;
25567;SDS011;13455;51.480;7.594;2023-06-22T00:04:59;6.18;;;4.22;;
25567;SDS011;13455;51.480;7.594;2023-06-22T00:07:24;7.23;;;4.87;;
25567;SDS011;13455;51.480;7.594;2023-06-22T00:09:50;6.63;;;4.68;;
25567;SDS011;13455;51.480;7.594;2023-06-22T00:12:16;6.10;;;4.77;;
25567;SDS011;13455;51.480;7.594;2023-06-22T00:14:41;7.13;;;4.95;;
25567;SDS011;13455;51.480;7.594;2023-06-22T00:17:07;6.73;;;5.13;;
25567;SDS011;13455;51.480;7.594;2023-06-22T00:19:32;7.07;;;5.13;;
25567;SDS011;13455;51.480;7.594;2023-06-22T00:22:00;5.90;;;4.97;;
25567;SDS011;13455;51.480;7.594;2023-06-22T00:24:28;7.07;;;4.82;;
25567;SDS011;13455;51.480;7.594;2023-06-22T00:26:54;8.93;;;5.30;;
25567;SDS011;13455;51.480;7.594;2023-06-22T00:29:19;9.73;;;5.03;;
25567;SDS011;13455;51.480;7.594;2023-06-22T00:31:45;6.63;;;5.10;;
25567;SDS011;13455;51.480;7.594;2023-06-22T00:34:10;8.00;;;5.10;;
25567;SDS011;13455;51.480;7.594;2023-06-22T00:36:36;7.93;;;5.00;;
25567;SDS011;13455;51.480;7.594;2023-06-22T00:39:02;7.30;;;4.90;;
25567;SDS011;13455;51.480;7.594;2023-06-22T00:41:28;8.85;;;5.20;;
25567;SDS011;13455;51.480;7.594;2023-06-22T00:43:54;8.27;;;5.25;;
25567;SDS011;13455;51.480;7.594;2023-06-22T00:46:21;7.95;;;5.30;;
25567;SDS011;13455;51.480;7.594;2023-06-22T00:48:47;7.55;;;5.65;;
25567;SDS011;13455;51.480;7.594;2023-06-22T00:51:14;7.90;;;5.10;;
25567;SDS011;13455;51.480;7.594;2023-06-22T00:53:40;8.43;;;5.40;;
25567;SDS011;13455;51.480;7.594;2023-06-22T00:56:08;9.57;;;6.10;;
25567;SDS011;13455;51.480;7.594;2023-06-22T00:58:35;9.17;;;5.97;;
25567;SDS011;13455;51.480;7.594;2023-06-22T01:01:01;9.23;;;5.80;;
25567;SDS011;13455;51.480;7.594;2023-06-22T01:03:27;7.90;;;6.60;;
25567;SDS011;13455;51.480;7.594;2023-06-22T01:05:54;10.17;;;6.60;;
25567;SDS011;13455;51.480;7.594;2023-06-22T01:08:29;9.38;;;6.70;;
25567;SDS011;13455;51.480;7.594;2023-06-22T01:16:18;9.80;;;7.45;;
25567;SDS011;13455;51.480;7.594;2023-06-22T01:18:46;8.75;;;7.10;;
25567;SDS011;13455;51.480;7.594;2023-06-22T01:21:16;9.27;;;6.75;;
25567;SDS011;13455;51.480;7.594;2023-06-22T01:23:50;10.98;;;7.40;;
25567;SDS011;13455;51.480;7.594;2023-06-22T01:26:19;8.90;;;7.05;;
25567;SDS011;13455;51.480;7.594;2023-06-22T01:28:50;9.93;;;7.20;;
25567;SDS011;13455;51.480;7.594;2023-06-22T01:31:17;12.88;;;7.00;;
25567;SDS011;13455;51.480;7.594;2023-06-22T01:33:44;9.63;;;7.07;;
25567;SDS011;13455;51.480;7.594;2023-06-22T01:36:11;11.80;;;7.37;;
25567;SDS011;13455;51.480;7.594;2023-06-22T01:38:38;10.77;;;7.20;;
25567;SDS011;13455;51.480;7.594;2023-06-22T01:41:04;11.40;;;7.47;;
25567;SDS011;13455;51.480;7.594;2023-06-22T01:43:31;11.05;;;7.35;;
25567;SDS011;13455;51.480;7.594;2023-06-22T01:45:59;8.68;;;6.90;;
25567;SDS011;13455;51.480;7.594;2023-06-22T01:48:25;11.75;;;6.82;;
25567;SDS011;13455;51.480;7.594;2023-06-22T01:50:52;9.63;;;6.30;;
25567;SDS011;13455;51.480;7.594;2023-06-22T01:53:20;8.98;;;6.53;;
25567;SDS011;13455;51.480;7.594;2023-06-22T01:55:46;7.55;;;6.00;;
25567;SDS011;13455;51.480;7.594;2023-06-22T01:58:13;8.85;;;6.40;;
25567;SDS011;13455;51.480;7.594;2023-06-22T02:00:39;9.18;;;6.95;;
25567;SDS011;13455;51.480;7.594;2023-06-22T02:03:10;9.43;;;6.85;;
25567;SDS011;13455;51.480;7.594;2023-06-22T02:05:46;9.88;;;7.03;;
25567;SDS011;13455;51.480;7.594;2023-06-22T02:08:25;11.33;;;7.53;;
25567;SDS011;13455;51.480;7.594;2023-06-22T02:11:00;11.20;;;7.28;;
25567;SDS011;13455;51.480;7.594;2023-06-22T02:13:27;10.65;;;7.78;;
25567;SDS011;13455;51.480;7.594;2023-06-22T02:15:53;10.13;;;6.88;;
25567;SDS011;13455;51.480;7.594;2023-06-22T02:18:19;9.48;;;7.15;;
25567;SDS011;13455;51.480;7.594;2023-06-22T02:20:45;10.73;;;7.43;;
25567;SDS011;13455;51.480;7.594;2023-06-22T02:23:11;9.27;;;7.20;;
25567;SDS011;13455;51.480;7.594;2023-06-22T02:25:36;10.50;;;7.00;;
25567;SDS011;13455;51.480;7.594;2023-06-22T02:28:02;8.23;;;6.73;;
25567;SDS011;13455;51.480;7.594;2023-06-22T02:30:28;10.00;;;6.70;;
25567;SDS011;13455;51.480;7.594;2023-06-22T02:32:54;9.70;;;7.63;;
25567;SDS011;13455;51.480;7.594;2023-06-22T02:35:25;12.10;;;7.55;;
25567;SDS011;13455;51.480;7.594;2023-06-22T02:37:51;9.85;;;7.68;;
25567;SDS011;13455;51.480;7.594;2023-06-22T02:40:16;10.27;;;8.02;;
25567;SDS011;13455;51.480;7.594;2023-06-22T02:42:43;11.57;;;8.07;;
25567;SDS011;13455;51.480;7.594;2023-06-22T02:45:08;11.13;;;8.23;;
25567;SDS011;13455;51.480;7.594;2023-06-22T02:47:34;12.43;;;8.70;;
25567;SDS011;13455;51.480;7.594;2023-06-22T02:50:00;10.50;;;8.40;;
25567;SDS011;13455;51.480;7.594;2023-06-22T02:52:26;13.05;;;8.68;;
25567;SDS011;13455;51.480;7.594;2023-06-22T02:54:52;10.85;;;8.32;;
25567;SDS011;13455;51.480;7.594;2023-06-22T02:57:18;11.10;;;8.77;;
25567;SDS011;13455;51.480;7.594;2023-06-22T02:59:44;11.13;;;7.97;;
25567;SDS011;13455;51.480;7.594;2023-06-22T03:02:10;10.57;;;8.15;;
25567;SDS011;13455;51.480;7.594;2023-06-22T03:04:37;10.37;;;8.47;;
25567;SDS011;13455;51.480;7.594;2023-06-22T03:07:03;9.03;;;7.80;;
25567;SDS011;13455;51.480;7.594;2023-06-22T03:09:29;11.97;;;8.37;;
25567;SDS011;13455;51.480;7.594;2023-06-22T03:11:55;12.97;;;8.07;;
25567;SDS011;13455;51.480;7.594;2023-06-22T03:14:20;11.53;;;8.27;;
25567;SDS011;13455;51.480;7.594;2023-06-22T03:16:47;12.80;;;7.77;;
25567;SDS011;13455;51.480;7.594;2023-06-22T03:19:13;10.87;;;7.90;;
25567;SDS011;13455;51.480;7.594;2023-06-22T03:21:39;11.30;;;7.20;;
25567;SDS011;13455;51.480;7.594;2023-06-22T03:24:08;9.48;;;6.88;;
25567;SDS011;13455;51.480;7.594;2023-06-22T03:26:34;11.47;;;7.20;;
25567;SDS011;13455;51.480;7.594;2023-06-22T03:29:00;10.97;;;7.33;;
25567;SDS011;13455;51.480;7.594;2023-06-22T03:31:26;10.77;;;7.23;;
25567;SDS011;13455;51.480;7.594;2023-06-22T03:33:52;12.50;;;7.60;;
25567;SDS011;13455;51.480;7.594;2023-06-22T03:36:18;10.30;;;7.77;;
25567;SDS011;13455;51.480;7.594;2023-06-22T03:38:45;11.70;;;8.07;;
25567;SDS011;13455;51.480;7.594;2023-06-22T03:41:11;10.43;;;7.47;;
25567;SDS011;13455;51.480;7.594;2023-06-22T03:43:37;10.03;;;7.60;;
25567;SDS011;13455;51.480;7.594;2023-06-22T03:46:02;11.20;;;7.93;;
25567;SDS011;13455;51.480;7.594;2023-06-22T03:48:28;10.53;;;7.97;;
25567;SDS011;13455;51.480;7.594;2023-06-22T03:50:53;11.43;;;8.23;;
25567;SDS011;13455;51.480;7.594;2023-06-22T03:53:19;11.88;;;8.05;;
25567;SDS011;13455;51.480;7.594;2023-06-22T03:55:51;13.33;;;7.30;;
25567;SDS011;13455;51.480;7.594;2023-06-22T03:58:17;10.15;;;7.30;;
25567;SDS011;13455;51.480;7.594;2023-06-22T04:00:44;12.82;;;8.18;;
25567;SDS011;13455;51.480;7.594;2023-06-22T04:03:11;9.88;;;7.88;;
25567;SDS011;13455;51.480;7.594;2023-06-22T04:05:38;12.13;;;9.18;;
25567;SDS011;13455;51.480;7.594;2023-06-22T04:08:04;12.65;;;9.23;;
25567;SDS011;13455;51.480;7.594;2023-06-22T04:10:30;13.33;;;9.20;;
25567;SDS011;13455;51.480;7.594;2023-06-22T04:12:56;11.13;;;9.03;;
25567;SDS011;13455;51.480;7.594;2023-06-22T04:15:22;12.80;;;9.83;;
25567;SDS011;13455;51.480;7.594;2023-06-22T04:17:48;12.27;;;9.67;;
25567;SDS011;13455;51.480;7.594;2023-06-22T04:20:14;13.50;;;10.03;;
25567;SDS011;13455;51.480;7.594;2023-06-22T04:22:40;15.10;;;9.70;;
25567;SDS011;13455;51.480;7.594;2023-06-22T04:25:06;14.17;;;9.83;;
25567;SDS011;13455;51.480;7.594;2023-06-22T04:27:32;12.00;;;9.82;;
25567;SDS011;13455;51.480;7.594;2023-06-22T04:30:02;13.90;;;10.38;;
25567;SDS011;13455;51.480;7.594;2023-06-22T04:32:29;12.13;;;10.30;;
25567;SDS011;13455;51.480;7.594;2023-06-22T04:34:55;14.85;;;10.82;;
25567;SDS011;13455;51.480;7.594;2023-06-22T04:37:21;14.85;;;10.73;;
25567;SDS011;13455;51.480;7.594;2023-06-22T04:39:48;11.40;;;9.80;;
25567;SDS011;13455;51.480;7.594;2023-06-22T04:42:15;12.13;;;9.98;;
25567;SDS011;13455;51.480;7.594;2023-06-22T04:44:41;14.10;;;10.18;;
25567;SDS011;13455;51.480;7.594;2023-06-22T04:47:07;14.43;;;10.87;;
25567;SDS011;13455;51.480;7.594;2023-06-22T04:49:34;12.90;;;10.17;;
25567;SDS011;13455;51.480;7.594;2023-06-22T04:52:05;13.48;;;10.43;;
25567;SDS011;13455;51.480;7.594;2023-06-22T04:54:35;13.63;;;11.00;;
25567;SDS011;13455;51.480;7.594;2023-06-22T04:57:02;13.30;;;11.07;;
25567;SDS011;13455;51.480;7.594;2023-06-22T04:59:29;14.33;;;10.70;;
25567;SDS011;13455;51.480;7.594;2023-06-22T05:01:58;12.65;;;9.88;;
25567;SDS011;13455;51.480;7.594;2023-06-22T05:04:25;12.93;;;9.82;;
25567;SDS011;13455;51.480;7.594;2023-06-22T05:06:52;14.23;;;10.02;;
25567;SDS011;13455;51.480;7.594;2023-06-22T05:09:18;13.35;;;10.48;;
25567;SDS011;13455;51.480;7.594;2023-06-22T05:11:45;13.10;;;10.37;;
25567;SDS011;13455;51.480;7.594;2023-06-22T05:14:11;15.32;;;9.93;;
25567;SDS011;13455;51.480;7.594;2023-06-22T05:16:37;19.67;;;11.50;;
25567;SDS011;13455;51.480;7.594;2023-06-22T05:19:03;19.47;;;12.27;;
25567;SDS011;13455;51.480;7.594;2023-06-22T05:21:30;18.20;;;11.60;;
25567;SDS011;13455;51.480;7.594;2023-06-22T05:23:56;18.73;;;11.70;;
25567;SDS011;13455;51.480;7.594;2023-06-22T05:26:25;17.23;;;11.53;;
25567;SDS011;13455;51.480;7.594;2023-06-22T05:28:51;17.85;;;12.30;;
25567;SDS011;13455;51.480;7.594;2023-06-22T05:31:18;20.93;;;13.13;;
25567;SDS011;13455;51.480;7.594;2023-06-22T05:33:47;19.05;;;13.07;;
25567;SDS011;13455;51.480;7.594;2023-06-22T05:36:14;16.73;;;13.90;;
25567;SDS011;13455;51.480;7.594;2023-06-22T05:38:40;21.70;;;14.77;;
25567;SDS011;13455;51.480;7.594;2023-06-22T05:41:06;19.92;;;14.70;;
25567;SDS011;13455;51.480;7.594;2023-06-22T05:43:32;23.42;;;15.23;;
25567;SDS011;13455;51.480;7.594;2023-06-22T05:45:59;22.30;;;14.93;;
25567;SDS011;13455;51.480;7.594;2023-06-22T05:48:25;19.60;;;14.95;;
25567;SDS011;13455;51.480;7.594;2023-06-22T05:50:51;19.27;;;15.35;;
25567;SDS011;13455;51.480;7.594;2023-06-22T05:53:17;20.80;;;15.38;;
25567;SDS011;13455;51.480;7.594;2023-06-22T05:55:42;23.80;;;15.53;;
25567;SDS011;13455;51.480;7.594;2023-06-22T05:58:08;21.92;;;15.70;;
25567;SDS011;13455;51.480;7.594;2023-06-22T06:00:34;20.40;;;16.95;;
25567;SDS011;13455;51.480;7.594;2023-06-22T06:03:00;19.23;;;16.73;;
25567;SDS011;13455;51.480;7.594;2023-06-22T06:05:31;22.80;;;16.38;;
25567;SDS011;13455;51.480;7.594;2023-06-22T06:07:58;19.85;;;16.20;;
25567;SDS011;13455;51.480;7.594;2023-06-22T06:10:27;19.45;;;15.77;;
25567;SDS011;13455;51.480;7.594;2023-06-22T06:12:54;19.15;;;15.73;;
25567;SDS011;13455;51.480;7.594;2023-06-22T06:15:20;18.60;;;15.40;;
25567;SDS011;13455;51.480;7.594;2023-06-22T06:17:50;21.15;;;15.02;;
25567;SDS011;13455;51.480;7.594;2023-06-22T06:20:23;18.10;;;15.45;;
25567;SDS011;13455;51.480;7.594;2023-06-22T06:22:49;18.50;;;15.20;;
25567;SDS011;13455;51.480;7.594;2023-06-22T06:25:15;18.35;;;15.48;;
25567;SDS011;13455;51.480;7.594;2023-06-22T06:27:45;18.73;;;15.52;;
25567;SDS011;13455;51.480;7.594;2023-06-22T06:30:11;17.27;;;15.53;;
25567;SDS011;13455;51.480;7.594;2023-06-22T06:32:38;19.67;;;15.80;;
25567;SDS011;13455;51.480;7.594;2023-06-22T06:35:07;18.55;;;15.68;;
25567;SDS011;13455;51.480;7.594;2023-06-22T06:37:35;18.42;;;16.27;;
25567;SDS011;13455;51.480;7.594;2023-06-22T06:40:03;18.20;;;16.07;;
25567;SDS011;13455;51.480;7.594;2023-06-22T06:42:31;19.15;;;16.10;;
25567;SDS011;13455;51.480;7.594;2023-06-22T06:44:56;18.20;;;15.70;;
25567;SDS011;13455;51.480;7.594;2023-06-22T06:47:22;20.50;;;16.50;;
25567;SDS011;13455;51.480;7.594;2023-06-22T06:49:47;17.58;;;15.65;;
25567;SDS011;13455;51.480;7.594;2023-06-22T06:52:13;22.87;;;16.23;;
25567;SDS011;13455;51.480;7.594;2023-06-22T06:54:38;18.50;;;15.70;;
25567;SDS011;13455;51.480;7.594;2023-06-22T06:57:04;17.63;;;15.73;;
25567;SDS011;13455;51.480;7.594;2023-06-22T06:59:30;18.33;;;16.33;;
25567;SDS011;13455;51.480;7.594;2023-06-22T07:01:55;17.65;;;15.70;;
25567;SDS011;13455;51.480;7.594;2023-06-22T07:04:21;18.87;;;16.77;;
25567;SDS011;13455;51.480;7.594;2023-06-22T07:06:46;18.42;;;16.40;;
25567;SDS011;13455;51.480;7.594;2023-06-22T07:09:12;18.07;;;16.17;;
25567;SDS011;13455;51.480;7.594;2023-06-22T07:11:37;18.75;;;16.55;;
25567;SDS011;13455;51.480;7.594;2023-06-22T07:14:03;18.40;;;16.33;;
25567;SDS011;13455;51.480;7.594;2023-06-22T07:16:29;19.77;;;16.35;;
25567;SDS011;13455;51.480;7.594;2023-06-22T07:18:56;20.15;;;17.13;;
25567;SDS011;13455;51.480;7.594;2023-06-22T07:21:21;22.70;;;16.73;;
25567;SDS011;13455;51.480;7.594;2023-06-22T07:23:47;20.10;;;16.67;;
25567;SDS011;13455;51.480;7.594;2023-06-22T07:26:13;20.77;;;16.77;;
25567;SDS011;13455;51.480;7.594;2023-06-22T07:28:38;20.53;;;17.13;;
25567;SDS011;13455;51.480;7.594;2023-06-22T07:31:05;19.75;;;17.42;;
25567;SDS011;13455;51.480;7.594;2023-06-22T07:33:31;21.38;;;17.58;;
25567;SDS011;13455;51.480;7.594;2023-06-22T07:35:57;20.13;;;18.02;;
25567;SDS011;13455;51.480;7.594;2023-06-22T07:38:22;19.53;;;17.43;;
25567;SDS011;13455;51.480;7.594;2023-06-22T07:40:48;19.02;;;17.02;;
25567;SDS011;13455;51.480;7.594;2023-06-22T07:43:15;19.88;;;17.15;;
25567;SDS011;13455;51.480;7.594;2023-06-22T07:45:44;19.42;;;17.08;;
25567;SDS011;13455;51.480;7.594;2023-06-22T07:48:17;20.63;;;17.33;;
25567;SDS011;13455;51.480;7.594;2023-06-22T07:50:44;20.13;;;17.27;;
25567;SDS011;13455;51.480;7.594;2023-06-22T07:53:10;20.52;;;17.83;;
25567;SDS011;13455;51.480;7.594;2023-06-22T07:55:36;20.87;;;17.87;;
25567;SDS011;13455;51.480;7.594;2023-06-22T07:58:01;21.13;;;17.90;;
25567;SDS011;13455;51.480;7.594;2023-06-22T08:00:27;18.73;;;16.70;;
25567;SDS011;13455;51.480;7.594;2023-06-22T08:02:52;19.65;;;16.80;;
25567;SDS011;13455;51.480;7.594;2023-06-22T08:05:18;19.13;;;16.80;;
25567;SDS011;13455;51.480;7.594;2023-06-22T08:07:44;21.65;;;17.10;;
25567;SDS011;13455;51.480;7.594;2023-06-22T08:10:10;20.40;;;16.50;;
25567;SDS011;13455;51.480;7.594;2023-06-22T08:12:36;21.90;;;16.90;;
25567;SDS011;13455;51.480;7.594;2023-06-22T08:15:02;18.70;;;16.58;;
25567;SDS011;13455;51.480;7.594;2023-06-22T08:17:28;18.23;;;16.33;;
25567;SDS011;13455;51.480;7.594;2023-06-22T08:19:53;20.63;;;16.30;;
25567;SDS011;13455;51.480;7.594;2023-06-22T08:22:19;19.83;;;16.70;;
25567;SDS011;13455;51.480;7.594;2023-06-22T08:24:45;19.30;;;15.70;;
25567;SDS011;13455;51.480;7.594;2023-06-22T08:27:10;19.15;;;16.33;;
25567;SDS011;13455;51.480;7.594;2023-06-22T08:29:46;16.77;;;14.93;;
25567;SDS011;13455;51.480;7.594;2023-06-22T08:32:12;17.98;;;15.05;;
25567;SDS011;13455;51.480;7.594;2023-06-22T08:34:37;17.77;;;14.87;;
25567;SDS011;13455;51.480;7.594;2023-06-22T08:37:07;17.40;;;14.40;;
25567;SDS011;13455;51.480;7.594;2023-06-22T08:39:33;17.38;;;14.63;;
25567;SDS011;13455;51.480;7.594;2023-06-22T08:41:59;16.02;;;14.32;;
25567;SDS011;13455;51.480;7.594;2023-06-22T08:44:25;16.77;;;14.50;;
25567;SDS011;13455;51.480;7.594;2023-06-22T08:46:51;15.20;;;13.47;;
25567;SDS011;13455;51.480;7.594;2023-06-22T08:49:17;15.02;;;12.77;;
25567;SDS011;13455;51.480;7.594;2023-06-22T08:51:43;15.48;;;13.18;;
25567;SDS011;13455;51.480;7.594;2023-06-22T08:54:10;18.50;;;14.00;;
25567;SDS011;13455;51.480;7.594;2023-06-22T08:56:36;16.35;;;13.85;;
25567;SDS011;13455;51.480;7.594;2023-06-22T08:59:02;15.27;;;13.10;;
25567;SDS011;13455;51.480;7.594;2023-06-22T09:01:27;15.13;;;13.40;;
25567;SDS011;13455;51.480;7.594;2023-06-22T09:03:53;16.73;;;12.80;;
25567;SDS011;13455;51.480;7.594;2023-06-22T09:06:22;15.25;;;12.88;;
25567;SDS011;13455;51.480;7.594;2023-06-22T09:08:49;14.60;;;13.10;;
25567;SDS011;13455;51.480;7.594;2023-06-22T09:11:15;14.38;;;12.32;;
25567;SDS011;13455;51.480;7.594;2023-06-22T09:13:40;14.20;;;12.70;;
25567;SDS011;13455;51.480;7.594;2023-06-22T09:16:06;14.50;;;12.65;;
25567;SDS011;13455;51.480;7.594;2023-06-22T09:18:33;14.70;;;13.20;;
25567;SDS011;13455;51.480;7.594;2023-06-22T09:20:59;15.25;;;13.65;;
25567;SDS011;13455;51.480;7.594;2023-06-22T09:23:25;17.50;;;13.18;;
25567;SDS011;13455;51.480;7.594;2023-06-22T09:25:50;14.87;;;12.67;;
25567;SDS011;13455;51.480;7.594;2023-06-22T09:28:16;14.68;;;12.60;;
25567;SDS011;13455;51.480;7.594;2023-06-22T09:30:45;13.80;;;12.23;;
25567;SDS011;13455;51.480;7.594;2023-06-22T09:33:10;13.63;;;11.90;;
25567;SDS011;13455;51.480;7.594;2023-06-22T09:35:36;14.73;;;11.70;;
25567;SDS011;13455;51.480;7.594;2023-06-22T09:38:02;15.57;;;11.70;;
25567;SDS011;13455;51.480;7.594;2023-06-22T09:40:27;14.00;;;12.13;;
25567;SDS011;13455;51.480;7.594;2023-06-22T09:42:53;13.30;;;11.73;;
25567;SDS011;13455;51.480;7.594;2023-06-22T09:45:19;14.03;;;12.20;;
25567;SDS011;13455;51.480;7.594;2023-06-22T09:47:44;13.00;;;11.60;;
25567;SDS011;13455;51.480;7.594;2023-06-22T09:50:10;12.90;;;11.57;;
25567;SDS011;13455;51.480;7.594;2023-06-22T09:52:35;14.33;;;12.13;;
25567;SDS011;13455;51.480;7.594;2023-06-22T09:55:01;14.05;;;11.50;;
25567;SDS011;13455;51.480;7.594;2023-06-22T09:57:28;14.80;;;11.45;;
25567;SDS011;13455;51.480;7.594;2023-06-22T09:59:54;12.77;;;10.52;;
25567;SDS011;13455;51.480;7.594;2023-06-22T10:02:20;11.05;;;9.95;;
25567;SDS011;13455;51.480;7.594;2023-06-22T10:04:47;12.93;;;10.00;;
25567;SDS011;13455;51.480;7.594;2023-06-22T10:07:13;10.75;;;9.13;;
25567;SDS011;13455;51.480;7.594;2023-06-22T10:09:39;13.07;;;9.80;;
25567;SDS011;13455;51.480;7.594;2023-06-22T10:12:04;12.93;;;10.43;;
25567;SDS011;13455;51.480;7.594;2023-06-22T10:14:30;12.63;;;10.30;;
25567;SDS011;13455;51.480;7.594;2023-06-22T10:16:56;12.10;;;9.80;;
25567;SDS011;13455;51.480;7.594;2023-06-22T10:19:22;12.97;;;10.13;;
25567;SDS011;13455;51.480;7.594;2023-06-22T10:21:47;14.13;;;10.98;;
25567;SDS011;13455;51.480;7.594;2023-06-22T10:24:13;12.63;;;11.32;;
25567;SDS011;13455;51.480;7.594;2023-06-22T10:26:38;13.60;;;11.07;;
25567;SDS011;13455;51.480;7.594;2023-06-22T10:29:04;13.20;;;11.10;;
25567;SDS011;13455;51.480;7.594;2023-06-22T10:31:30;11.07;;;9.70;;
25567;SDS011;13455;51.480;7.594;2023-06-22T10:33:56;10.98;;;9.38;;
25567;SDS011;13455;51.480;7.594;2023-06-22T10:36:22;10.95;;;9.05;;
25567;SDS011;13455;51.480;7.594;2023-06-22T10:38:48;10.63;;;8.70;;
25567;SDS011;13455;51.480;7.594;2023-06-22T10:41:14;10.50;;;9.40;;
25567;SDS011;13455;51.480;7.594;2023-06-22T10:43:41;10.93;;;9.30;;
25567;SDS011;13455;51.480;7.594;2023-06-22T10:46:07;11.40;;;8.77;;
25567;SDS011;13455;51.480;7.594;2023-06-22T10:48:33;10.30;;;8.60;;
25567;SDS011;13455;51.480;7.594;2023-06-22T10:50:59;8.67;;;7.63;;
25567;SDS011;13455;51.480;7.594;2023-06-22T10:53:24;9.55;;;8.15;;
25567;SDS011;13455;51.480;7.594;2023-06-22T10:55:50;9.27;;;7.67;;
25567;SDS011;13455;51.480;7.594;2023-06-22T10:58:17;11.57;;;8.20;;
25567;SDS011;13455;51.480;7.594;2023-06-22T11:00:44;9.37;;;7.60;;
25567;SDS011;13455;51.480;7.594;2023-06-22T11:03:10;8.52;;;7.63;;
25567;SDS011;13455;51.480;7.594;2023-06-22T11:05:36;9.10;;;7.40;;
25567;SDS011;13455;51.480;7.594;2023-06-22T11:08:02;8.73;;;7.30;;
25567;SDS011;13455;51.480;7.594;2023-06-22T11:10:28;9.27;;;7.80;;
25567;SDS011;13455;51.480;7.594;2023-06-22T11:12:53;9.60;;;7.50;;
25567;SDS011;13455;51.480;7.594;2023-06-22T11:15:20;8.73;;;7.65;;
25567;SDS011;13455;51.480;7.594;2023-06-22T11:17:46;12.60;;;7.95;;
25567;SDS011;13455;51.480;7.594;2023-06-22T11:20:12;10.17;;;8.60;;
25567;SDS011;13455;51.480;7.594;2023-06-22T11:22:38;14.48;;;10.07;;
25567;SDS011;13455;51.480;7.594;2023-06-22T11:25:05;18.77;;;11.30;;
25567;SDS011;13455;51.480;7.594;2023-06-22T11:27:31;13.43;;;10.05;;
25567;SDS011;13455;51.480;7.594;2023-06-22T11:29:57;13.73;;;10.53;;
25567;SDS011;13455;51.480;7.594;2023-06-22T11:32:22;14.63;;;10.93;;
25567;SDS011;13455;51.480;7.594;2023-06-22T11:34:48;14.70;;;11.02;;
25567;SDS011;13455;51.480;7.594;2023-06-22T11:37:14;13.43;;;10.97;;
25567;SDS011;13455;51.480;7.594;2023-06-22T11:39:40;14.55;;;11.38;;
25567;SDS011;13455;51.480;7.594;2023-06-22T11:42:06;12.80;;;11.40;;
25567;SDS011;13455;51.480;7.594;2023-06-22T11:44:32;12.93;;;11.55;;
25567;SDS011;13455;51.480;7.594;2023-06-22T11:46:58;16.38;;;12.27;;
25567;SDS011;13455;51.480;7.594;2023-06-22T11:49:25;15.13;;;12.20;;
25567;SDS011;13455;51.480;7.594;2023-06-22T11:51:54;14.40;;;12.00;;
25567;SDS011;13455;51.480;7.594;2023-06-22T11:54:20;14.90;;;12.13;;
25567;SDS011;13455;51.480;7.594;2023-06-22T11:56:46;13.50;;;12.03;;
25567;SDS011;13455;51.480;7.594;2023-06-22T11:59:13;14.65;;;12.40;;
25567;SDS011;13455;51.480;7.594;2023-06-22T12:01:39;15.60;;;12.20;;
25567;SDS011;13455;51.480;7.594;2023-06-22T12:04:05;15.83;;;12.70;;
25567;SDS011;13455;51.480;7.594;2023-06-22T12:06:31;14.15;;;12.75;;
25567;SDS011;13455;51.480;7.594;2023-06-22T12:08:58;16.30;;;13.25;;
25567;SDS011;13455;51.480;7.594;2023-06-22T12:11:24;15.68;;;13.70;;
25567;SDS011;13455;51.480;7.594;2023-06-22T12:13:49;17.03;;;13.87;;
25567;SDS011;13455;51.480;7.594;2023-06-22T12:16:15;18.65;;;14.02;;
25567;SDS011;13455;51.480;7.594;2023-06-22T12:18:41;16.75;;;14.23;;
25567;SDS011;13455;51.480;7.594;2023-06-22T12:21:07;17.80;;;13.65;;
25567;SDS011;13455;51.480;7.594;2023-06-22T12:23:33;18.30;;;13.43;;
25567;SDS011;13455;51.480;7.594;2023-06-22T12:25:59;14.87;;;13.17;;
25567;SDS011;13455;51.480;7.594;2023-06-22T12:28:26;17.90;;;12.95;;
25567;SDS011;13455;51.480;7.594;2023-06-22T12:30:52;16.55;;;13.10;;
25567;SDS011;13455;51.480;7.594;2023-06-22T12:33:17;19.63;;;13.40;;
25567;SDS011;13455;51.480;7.594;2023-06-22T12:35:43;17.27;;;13.52;;
25567;SDS011;13455;51.480;7.594;2023-06-22T12:38:10;15.73;;;13.10;;
25567;SDS011;13455;51.480;7.594;2023-06-22T12:40:36;17.52;;;13.70;;
25567;SDS011;13455;51.480;7.594;2023-06-22T12:43:02;16.55;;;13.20;;
25567;SDS011;13455;51.480;7.594;2023-06-22T12:45:28;16.90;;;13.88;;
25567;SDS011;13455;51.480;7.594;2023-06-22T12:47:56;18.90;;;13.57;;
25567;SDS011;13455;51.480;7.594;2023-06-22T12:50:22;16.45;;;14.00;;
25567;SDS011;13455;51.480;7.594;2023-06-22T12:52:48;18.83;;;14.18;;
25567;SDS011;13455;51.480;7.594;2023-06-22T12:55:14;16.38;;;13.20;;
25567;SDS011;13455;51.480;7.594;2023-06-22T12:57:40;16.40;;;13.23;;
25567;SDS011;13455;51.480;7.594;2023-06-22T13:00:06;15.30;;;13.30;;
25567;SDS011;13455;51.480;7.594;2023-06-22T13:02:36;16.63;;;13.23;;
25567;SDS011;13455;51.480;7.594;2023-06-22T13:05:02;15.35;;;13.55;;
25567;SDS011;13455;51.480;7.594;2023-06-22T13:07:30;16.33;;;13.40;;
25567;SDS011;13455;51.480;7.594;2023-06-22T13:09:56;16.50;;;12.13;;
25567;SDS011;13455;51.480;7.594;2023-06-22T13:12:22;14.35;;;11.65;;
25567;SDS011;13455;51.480;7.594;2023-06-22T13:14:48;13.37;;;11.67;;
25567;SDS011;13455;51.480;7.594;2023-06-22T13:17:14;14.77;;;11.25;;
25567;SDS011;13455;51.480;7.594;2023-06-22T13:19:40;14.97;;;11.63;;
25567;SDS011;13455;51.480;7.594;2023-06-22T13:24:52;14.88;;;12.68;;
25567;SDS011;13455;51.480;7.594;2023-06-22T13:27:18;16.27;;;13.20;;
25567;SDS011;13455;51.480;7.594;2023-06-22T13:29:44;15.32;;;13.25;;
25567;SDS011;13455;51.480;7.594;2023-06-22T13:32:10;16.63;;;14.02;;
25567;SDS011;13455;51.480;7.594;2023-06-22T13:34:36;16.53;;;12.93;;
25567;SDS011;13455;51.480;7.594;2023-06-22T13:37:02;14.73;;;13.18;;
25567;SDS011;13455;51.480;7.594;2023-06-22T13:39:29;15.45;;;13.73;;
25567;SDS011;13455;51.480;7.594;2023-06-22T13:41:55;14.52;;;13.02;;
25567;SDS011;13455;51.480;7.594;2023-06-22T13:44:21;15.30;;;12.93;;
25567;SDS011;13455;51.480;7.594;2023-06-22T13:46:47;15.25;;;12.63;;
25567;SDS011;13455;51.480;7.594;2023-06-22T13:49:13;14.43;;;12.13;;
25567;SDS011;13455;51.480;7.594;2023-06-22T13:51:39;14.45;;;11.48;;
25567;SDS011;13455;51.480;7.594;2023-06-22T13:54:05;12.80;;;10.90;;
25567;SDS011;13455;51.480;7.594;2023-06-22T13:56:32;11.50;;;10.30;;
25567;SDS011;13455;51.480;7.594;2023-06-22T13:58:58;12.20;;;10.90;;
25567;SDS011;13455;51.480;7.594;2023-06-22T14:01:24;11.40;;;9.90;;
25567;SDS011;13455;51.480;7.594;2023-06-22T14:03:50;12.70;;;10.77;;
25567;SDS011;13455;51.480;7.594;2023-06-22T14:06:16;13.25;;;11.25;;
25567;SDS011;13455;51.480;7.594;2023-06-22T14:08:42;12.30;;;10.93;;
25567;SDS011;13455;51.480;7.594;2023-06-22T14:11:07;12.30;;;11.02;;
25567;SDS011;13455;51.480;7.594;2023-06-22T14:13:33;12.67;;;11.47;;
25567;SDS011;13455;51.480;7.594;2023-06-22T14:16:00;12.73;;;11.38;;
25567;SDS011;13455;51.480;7.594;2023-06-22T14:18:26;13.00;;;11.70;;
25567;SDS011;13455;51.480;7.594;2023-06-22T14:20:52;12.90;;;11.60;;
25567;SDS011;13455;51.480;7.594;2023-06-22T14:23:17;13.55;;;11.80;;
25567;SDS011;13455;51.480;7.594;2023-06-22T14:25:43;12.73;;;11.00;;
25567;SDS011;13455;51.480;7.594;2023-06-22T14:28:08;13.10;;;11.50;;
25567;SDS011;13455;51.480;7.594;2023-06-22T14:30:34;12.10;;;10.68;;